createdAt,value
2017-07-04T00:00:21.146Z,1019.08
2017-07-04T00:00:46.716Z,1019.1
2017-07-04T00:01:12.264Z,1019.12
2017-07-04T00:01:37.943Z,1019.09
2017-07-04T00:02:03.514Z,1019.14
2017-07-04T00:02:29.075Z,1019.1
2017-07-04T00:02:54.655Z,1019.15
2017-07-04T00:03:20.246Z,1019.11
2017-07-04T00:03:45.802Z,1019.09
2017-07-04T00:04:11.422Z,1019.13
2017-07-04T00:04:36.991Z,1019.12
2017-07-04T00:05:02.582Z,1019.1
2017-07-04T00:05:28.163Z,1019.13
2017-07-04T00:05:53.975Z,1019.12
2017-07-04T00:06:19.544Z,1019.1
2017-07-04T00:06:45.106Z,1019.07
2017-07-04T00:07:10.710Z,1019.06
2017-07-04T00:07:36.275Z,1019.05
2017-07-04T00:08:01.844Z,1019.02
2017-07-04T00:08:27.403Z,1019.06
2017-07-04T00:08:53.042Z,1019.05
2017-07-04T00:09:18.611Z,1019.06
2017-07-04T00:09:44.164Z,1019.05
2017-07-04T00:10:09.718Z,1019.05
2017-07-04T00:10:35.374Z,1019.06
2017-07-04T00:11:00.919Z,1019.05
2017-07-04T00:11:26.476Z,1019.06
2017-07-04T00:11:52.030Z,1019.03
2017-07-04T00:12:17.591Z,1019.05
2017-07-04T00:12:43.182Z,1019.05
2017-07-04T00:13:08.746Z,1019.04
2017-07-04T00:13:34.313Z,1019.06
2017-07-04T00:13:59.959Z,1019.03
2017-07-04T00:14:25.646Z,1019.09
2017-07-04T00:14:51.217Z,1019.04
2017-07-04T00:15:16.807Z,1019.06
2017-07-04T00:15:42.353Z,1019.07
2017-07-04T00:16:07.909Z,1019.06
2017-07-04T00:16:33.477Z,1019.06
2017-07-04T00:16:59.031Z,1019.09
2017-07-04T00:17:24.591Z,1019.09
2017-07-04T00:17:50.183Z,1019.12
2017-07-04T00:18:15.753Z,1019.08
2017-07-04T00:18:41.307Z,1019.11
2017-07-04T00:19:06.866Z,1019.09
2017-07-04T00:19:32.481Z,1019.1
2017-07-04T00:19:58.034Z,1019.07
2017-07-04T00:20:23.605Z,1019.05
2017-07-04T00:20:49.233Z,1019.08
2017-07-04T00:21:14.798Z,1019.12
2017-07-04T00:21:40.380Z,1019.09
2017-07-04T00:22:06.032Z,1019.1
2017-07-04T00:22:31.597Z,1019.06
2017-07-04T00:22:57.158Z,1019.1
2017-07-04T00:23:22.774Z,1019.12
2017-07-04T00:23:48.330Z,1019.12
2017-07-04T00:24:13.884Z,1019.11
2017-07-04T00:24:39.441Z,1019.16
2017-07-04T00:25:05.004Z,1019.13
2017-07-04T00:25:30.559Z,1019.14
2017-07-04T00:25:56.185Z,1019.13
2017-07-04T00:26:21.733Z,1019.15
2017-07-04T00:26:47.323Z,1019.13
2017-07-04T00:27:12.905Z,1019.14
2017-07-04T00:27:38.473Z,1019.2
2017-07-04T00:28:04.022Z,1019.2
2017-07-04T00:28:29.675Z,1019.18
2017-07-04T00:28:55.256Z,1019.2
2017-07-04T00:29:20.818Z,1019.2
2017-07-04T00:29:46.476Z,1019.18
2017-07-04T00:30:12.045Z,1019.19
2017-07-04T00:30:37.605Z,1019.14
2017-07-04T00:31:03.159Z,1019.15
2017-07-04T00:31:28.860Z,1019.2
2017-07-04T00:31:54.425Z,1019.16
2017-07-04T00:32:19.985Z,1019.19
2017-07-04T00:32:45.564Z,1019.18
2017-07-04T00:33:11.137Z,1019.15
2017-07-04T00:33:36.695Z,1019.16
2017-07-04T00:34:02.285Z,1019.18
2017-07-04T00:34:27.844Z,1019.17
2017-07-04T00:34:53.391Z,1019.18
2017-07-04T00:35:19.002Z,1019.17
2017-07-04T00:35:44.555Z,1019.14
2017-07-04T00:36:10.093Z,1019.2
2017-07-04T00:36:35.664Z,1019.14
2017-07-04T00:37:01.240Z,1019.19
2017-07-04T00:37:26.793Z,1019.18
2017-07-04T00:37:52.417Z,1019.16
2017-07-04T00:38:18.032Z,1019.18
2017-07-04T00:38:43.615Z,1019.2
2017-07-04T00:39:09.185Z,1019.19
2017-07-04T00:39:34.773Z,1019.18
2017-07-04T00:40:00.340Z,1019.19
2017-07-04T00:40:25.905Z,1019.13
2017-07-04T00:40:51.488Z,1019.16
2017-07-04T00:41:17.095Z,1019.19
2017-07-04T00:42:36.467Z,1019.15
2017-07-04T00:43:02.018Z,1019.17
2017-07-04T00:43:27.663Z,1019.18
2017-07-04T00:43:53.255Z,1019.18
2017-07-04T00:44:18.833Z,1019.23
2017-07-04T00:44:44.399Z,1019.15
2017-07-04T00:45:09.954Z,1019.2
2017-07-04T00:45:35.504Z,1019.22
2017-07-04T00:46:01.123Z,1019.24
2017-07-04T00:46:26.723Z,1019.22
2017-07-04T00:46:52.279Z,1019.2
2017-07-04T00:47:17.834Z,1019.24
2017-07-04T00:47:43.529Z,1019.2
2017-07-04T00:48:09.097Z,1019.24
2017-07-04T00:48:34.650Z,1019.21
2017-07-04T00:49:00.219Z,1019.2
2017-07-04T00:49:25.780Z,1019.22
2017-07-04T00:49:51.379Z,1019.2
2017-07-04T00:50:16.990Z,1019.21
2017-07-04T00:50:42.541Z,1019.19
2017-07-04T00:51:08.085Z,1019.18
2017-07-04T00:51:33.656Z,1019.17
2017-07-04T00:51:59.220Z,1019.16
2017-07-04T00:52:24.792Z,1019.17
2017-07-04T00:52:50.422Z,1019.21
2017-07-04T00:53:15.960Z,1019.21
2017-07-04T00:53:41.517Z,1019.22
2017-07-04T00:54:07.197Z,1019.21
2017-07-04T00:54:32.798Z,1019.22
2017-07-04T00:54:58.340Z,1019.16
2017-07-04T00:55:23.927Z,1019.2
2017-07-04T00:55:49.492Z,1019.2
2017-07-04T00:56:15.047Z,1019.21
2017-07-04T00:56:40.638Z,1019.17
2017-07-04T00:57:06.189Z,1019.21
2017-07-04T00:57:31.746Z,1019.17
2017-07-04T00:57:57.335Z,1019.19
2017-07-04T00:58:22.894Z,1019.14
2017-07-04T00:58:48.443Z,1019.17
2017-07-04T00:59:14.109Z,1019.17
2017-07-04T00:59:39.676Z,1019.16
2017-07-04T01:00:05.224Z,1019.17
2017-07-04T01:00:30.795Z,1019.12
2017-07-04T01:00:56.357Z,1019.11
2017-07-04T01:01:21.916Z,1019.17
2017-07-04T01:01:47.512Z,1019.15
2017-07-04T01:02:13.057Z,1019.17
2017-07-04T01:02:38.634Z,1019.18
2017-07-04T01:03:04.256Z,1019.13
2017-07-04T01:03:29.897Z,1019.17
2017-07-04T01:03:55.455Z,1019.1
2017-07-04T01:04:21.009Z,1019.14
2017-07-04T01:04:46.569Z,1019.17
2017-07-04T01:05:12.137Z,1019.21
2017-07-04T01:05:37.744Z,1019.17
2017-07-04T01:06:03.329Z,1019.16
2017-07-04T01:06:28.881Z,1019.16
2017-07-04T01:06:54.442Z,1019.18
2017-07-04T01:07:19.996Z,1019.17
2017-07-04T01:07:45.544Z,1019.16
2017-07-04T01:08:11.140Z,1019.19
2017-07-04T01:08:36.695Z,1019.17
2017-07-04T01:09:02.251Z,1019.14
2017-07-04T01:09:27.822Z,1019.14
2017-07-04T01:09:53.391Z,1019.17
2017-07-04T01:10:18.994Z,1019.15
2017-07-04T01:10:44.550Z,1019.15
2017-07-04T01:11:10.095Z,1019.18
2017-07-04T01:11:35.668Z,1019.18
2017-07-04T01:12:01.272Z,1019.15
2017-07-04T01:12:26.936Z,1019.19
2017-07-04T01:12:52.494Z,1019.19
2017-07-04T01:13:18.050Z,1019.19
2017-07-04T01:13:43.614Z,1019.21
2017-07-04T01:14:09.176Z,1019.19
2017-07-04T01:14:34.750Z,1019.17
2017-07-04T01:15:00.317Z,1019.17
2017-07-04T01:15:25.876Z,1019.21
2017-07-04T01:15:51.447Z,1019.21
2017-07-04T01:16:17.076Z,1019.24
2017-07-04T01:16:42.642Z,1019.2
2017-07-04T01:17:08.192Z,1019.25
2017-07-04T01:17:33.775Z,1019.26
2017-07-04T01:17:59.323Z,1019.25
2017-07-04T01:18:24.899Z,1019.24
2017-07-04T01:18:50.535Z,1019.28
2017-07-04T01:19:16.262Z,1019.25
2017-07-04T01:19:41.818Z,1019.25
2017-07-04T01:20:07.404Z,1019.27
2017-07-04T01:20:33.016Z,1019.25
2017-07-04T01:20:58.567Z,1019.26
2017-07-04T01:21:24.123Z,1019.26
2017-07-04T01:21:49.677Z,1019.27
2017-07-04T01:22:15.240Z,1019.27
2017-07-04T01:22:40.825Z,1019.24
2017-07-04T01:23:06.461Z,1019.24
2017-07-04T01:23:32.021Z,1019.27
2017-07-04T01:23:57.570Z,1019.26
2017-07-04T01:24:23.137Z,1019.26
2017-07-04T01:24:48.720Z,1019.27
2017-07-04T01:25:14.282Z,1019.33
2017-07-04T01:25:39.845Z,1019.32
2017-07-04T01:26:05.411Z,1019.33
2017-07-04T01:26:30.973Z,1019.32
2017-07-04T01:26:56.568Z,1019.31
2017-07-04T01:27:22.156Z,1019.35
2017-07-04T01:27:47.708Z,1019.3
2017-07-04T01:28:13.297Z,1019.31
2017-07-04T01:28:38.865Z,1019.35
2017-07-04T01:29:04.418Z,1019.34
2017-07-04T01:29:30.030Z,1019.29
2017-07-04T01:29:55.606Z,1019.32
2017-07-04T01:30:21.158Z,1019.37
2017-07-04T01:30:46.702Z,1019.33
2017-07-04T01:31:12.292Z,1019.33
2017-07-04T01:31:37.854Z,1019.34
2017-07-04T01:32:03.431Z,1019.41
2017-07-04T01:32:29.061Z,1019.34
2017-07-04T01:32:54.634Z,1019.35
2017-07-04T01:33:20.242Z,1019.34
2017-07-04T01:33:45.817Z,1019.33
2017-07-04T01:34:11.367Z,1019.34
2017-07-04T01:34:36.978Z,1019.41
2017-07-04T01:35:02.544Z,1019.35
2017-07-04T01:35:28.106Z,1019.42
2017-07-04T01:35:53.706Z,1019.32
2017-07-04T01:36:19.329Z,1019.35
2017-07-04T01:36:44.896Z,1019.39
2017-07-04T01:37:10.446Z,1019.36
2017-07-04T01:37:36.018Z,1019.36
2017-07-04T01:38:01.551Z,1019.38
2017-07-04T01:38:27.105Z,1019.43
2017-07-04T01:38:52.693Z,1019.37
2017-07-04T01:39:18.247Z,1019.36
2017-07-04T01:39:43.881Z,1019.36
2017-07-04T01:40:09.465Z,1019.37
2017-07-04T01:40:35.025Z,1019.35
2017-07-04T01:41:00.670Z,1019.38
2017-07-04T01:41:26.214Z,1019.32
2017-07-04T01:41:51.760Z,1019.31
2017-07-04T01:42:17.378Z,1019.33
2017-07-04T01:42:43.019Z,1019.35
2017-07-04T01:43:08.578Z,1019.36
2017-07-04T01:43:34.141Z,1019.34
2017-07-04T01:43:59.684Z,1019.38
2017-07-04T01:44:25.250Z,1019.31
2017-07-04T01:44:50.819Z,1019.41
2017-07-04T01:45:16.381Z,1019.42
2017-07-04T01:45:41.935Z,1019.37
2017-07-04T01:46:07.508Z,1019.39
2017-07-04T01:46:33.136Z,1019.41
2017-07-04T01:46:58.770Z,1019.37
2017-07-04T01:47:24.333Z,1019.37
2017-07-04T01:47:49.941Z,1019.38
2017-07-04T01:48:15.498Z,1019.37
2017-07-04T01:48:41.060Z,1019.43
2017-07-04T01:49:06.612Z,1019.42
2017-07-04T01:49:32.170Z,1019.4
2017-07-04T01:49:57.723Z,1019.42
2017-07-04T01:50:23.292Z,1019.4
2017-07-04T01:50:48.994Z,1019.46
2017-07-04T01:51:14.563Z,1019.46
2017-07-04T01:51:40.125Z,1019.46
2017-07-04T01:52:05.724Z,1019.48
2017-07-04T01:52:31.280Z,1019.49
2017-07-04T01:52:56.897Z,1019.47
2017-07-04T01:53:22.474Z,1019.47
2017-07-04T01:53:48.020Z,1019.5
2017-07-04T01:54:13.585Z,1019.48
2017-07-04T01:54:39.140Z,1019.49
2017-07-04T01:55:04.714Z,1019.53
2017-07-04T01:55:30.285Z,1019.5
2017-07-04T01:55:55.886Z,1019.53
2017-07-04T01:56:21.467Z,1019.52
2017-07-04T01:56:47.033Z,1019.52
2017-07-04T01:57:12.625Z,1019.52
2017-07-04T01:57:38.196Z,1019.52
2017-07-04T01:58:03.777Z,1019.52
2017-07-04T01:58:29.324Z,1019.58
2017-07-04T01:58:54.886Z,1019.52
2017-07-04T01:59:20.450Z,1019.55
2017-07-04T02:00:24.414Z,1019.57
2017-07-04T02:00:50.016Z,1019.57
2017-07-04T02:01:15.627Z,1019.56
2017-07-04T02:01:41.192Z,1019.54
2017-07-04T02:02:06.821Z,1019.57
2017-07-04T02:02:32.501Z,1019.6
2017-07-04T02:02:58.062Z,1019.56
2017-07-04T02:03:23.628Z,1019.56
2017-07-04T02:03:49.186Z,1019.56
2017-07-04T02:04:14.755Z,1019.56
2017-07-04T02:04:40.318Z,1019.54
2017-07-04T02:05:05.888Z,1019.53
2017-07-04T02:06:20.221Z,1019.53
2017-07-04T02:06:45.844Z,1019.5
2017-07-04T02:07:11.529Z,1019.53
2017-07-04T02:07:37.083Z,1019.52
2017-07-04T02:08:02.666Z,1019.53
2017-07-04T02:08:28.241Z,1019.54
2017-07-04T02:08:53.781Z,1019.54
2017-07-04T02:09:19.329Z,1019.56
2017-07-04T02:09:44.876Z,1019.53
2017-07-04T02:10:10.437Z,1019.55
2017-07-04T02:10:35.989Z,1019.53
2017-07-04T02:11:01.551Z,1019.52
2017-07-04T02:11:27.114Z,1019.56
2017-07-04T02:11:52.767Z,1019.53
2017-07-04T02:12:18.353Z,1019.55
2017-07-04T02:12:44.040Z,1019.53
2017-07-04T02:13:09.601Z,1019.57
2017-07-04T02:13:35.217Z,1019.59
2017-07-04T02:14:00.760Z,1019.58
2017-07-04T02:14:26.301Z,1019.58
2017-07-04T02:14:51.859Z,1019.59
2017-07-04T02:15:17.420Z,1019.58
2017-07-04T02:15:43.007Z,1019.59
2017-07-04T02:16:08.683Z,1019.61
2017-07-04T02:16:34.229Z,1019.61
2017-07-04T02:16:59.772Z,1019.57
2017-07-04T02:17:25.343Z,1019.59
2017-07-04T02:17:50.904Z,1019.56
2017-07-04T02:18:16.469Z,1019.57
2017-07-04T02:18:42.131Z,1019.62
2017-07-04T02:19:07.814Z,1019.58
2017-07-04T02:19:33.374Z,1019.6
2017-07-04T02:19:58.933Z,1019.58
2017-07-04T02:20:24.480Z,1019.53
2017-07-04T02:20:50.058Z,1019.54
2017-07-04T02:21:15.630Z,1019.55
2017-07-04T02:21:41.238Z,1019.52
2017-07-04T02:22:06.783Z,1019.54
2017-07-04T02:22:32.340Z,1019.53
2017-07-04T02:22:57.901Z,1019.55
2017-07-04T02:23:23.471Z,1019.52
2017-07-04T02:23:49.058Z,1019.54
2017-07-04T02:24:14.635Z,1019.54
2017-07-04T02:24:40.188Z,1019.56
2017-07-04T02:25:05.772Z,1019.51
2017-07-04T02:25:31.339Z,1019.53
2017-07-04T02:25:56.921Z,1019.55
2017-07-04T02:26:22.484Z,1019.56
2017-07-04T02:27:31.586Z,1019.57
2017-07-04T02:28:40.331Z,1019.58
2017-07-04T02:29:05.906Z,1019.58
2017-07-04T02:29:31.450Z,1019.57
2017-07-04T02:29:57.028Z,1019.58
2017-07-04T02:30:22.570Z,1019.61
2017-07-04T02:30:48.115Z,1019.57
2017-07-04T02:31:13.676Z,1019.58
2017-07-04T02:31:39.234Z,1019.57
2017-07-04T02:32:04.786Z,1019.59
2017-07-04T02:32:30.472Z,1019.61
2017-07-04T02:32:56.074Z,1019.57
2017-07-04T02:33:21.658Z,1019.55
2017-07-04T02:33:47.211Z,1019.59
2017-07-04T02:34:12.765Z,1019.56
2017-07-04T02:34:38.312Z,1019.57
2017-07-04T02:35:03.874Z,1019.6
2017-07-04T02:35:29.441Z,1019.62
2017-07-04T02:35:55.007Z,1019.6
2017-07-04T02:36:20.599Z,1019.6
2017-07-04T02:36:46.152Z,1019.61
2017-07-04T02:37:11.718Z,1019.57
2017-07-04T02:37:37.278Z,1019.6
2017-07-04T02:38:02.854Z,1019.59
2017-07-04T02:38:28.422Z,1019.63
2017-07-04T02:38:53.997Z,1019.64
2017-07-04T02:39:19.545Z,1019.66
2017-07-04T02:39:45.101Z,1019.65
2017-07-04T02:40:10.652Z,1019.68
2017-07-04T02:40:36.223Z,1019.67
2017-07-04T02:41:01.773Z,1019.68
2017-07-04T02:41:27.329Z,1019.69
2017-07-04T02:41:52.871Z,1019.7
2017-07-04T02:42:18.441Z,1019.67
2017-07-04T02:42:44.003Z,1019.68
2017-07-04T02:43:09.570Z,1019.72
2017-07-04T02:43:35.145Z,1019.7
2017-07-04T02:44:00.716Z,1019.67
2017-07-04T02:44:26.278Z,1019.67
2017-07-04T02:44:51.849Z,1019.65
2017-07-04T02:45:17.424Z,1019.68
2017-07-04T02:45:42.994Z,1019.65
2017-07-04T02:46:08.559Z,1019.71
2017-07-04T02:46:34.100Z,1019.72
2017-07-04T02:46:59.661Z,1019.7
2017-07-04T02:47:25.228Z,1019.72
2017-07-04T02:47:50.774Z,1019.72
2017-07-04T02:48:16.353Z,1019.71
2017-07-04T02:48:42.031Z,1019.72
2017-07-04T02:49:07.591Z,1019.8
2017-07-04T02:49:33.151Z,1019.76
2017-07-04T02:49:58.710Z,1019.77
2017-07-04T02:50:24.390Z,1019.74
2017-07-04T02:50:49.973Z,1019.75
2017-07-04T02:51:15.533Z,1019.76
2017-07-04T02:51:41.079Z,1019.76
2017-07-04T02:52:06.640Z,1019.77
2017-07-04T02:52:32.193Z,1019.76
2017-07-04T02:52:57.867Z,1019.78
2017-07-04T02:53:23.426Z,1019.76
2017-07-04T02:53:48.979Z,1019.77
2017-07-04T02:54:14.543Z,1019.75
2017-07-04T02:54:40.139Z,1019.8
2017-07-04T02:55:05.724Z,1019.77
2017-07-04T02:55:31.278Z,1019.77
2017-07-04T02:55:56.844Z,1019.78
2017-07-04T02:56:22.402Z,1019.8
2017-07-04T02:56:48.079Z,1019.82
2017-07-04T02:57:13.621Z,1019.79
2017-07-04T02:57:39.172Z,1019.8
2017-07-04T02:58:04.735Z,1019.84
2017-07-04T02:58:30.294Z,1019.83
2017-07-04T02:58:55.854Z,1019.81
2017-07-04T02:59:21.527Z,1019.83
2017-07-04T02:59:47.097Z,1019.85
2017-07-04T03:00:12.665Z,1019.84
2017-07-04T03:00:38.222Z,1019.86
2017-07-04T03:01:03.779Z,1019.86
2017-07-04T03:01:29.353Z,1019.86
2017-07-04T03:01:54.914Z,1019.86
2017-07-04T03:02:20.476Z,1019.87
2017-07-04T03:02:46.042Z,1019.88
2017-07-04T03:03:11.706Z,1019.87
2017-07-04T03:03:37.270Z,1019.87
2017-07-04T03:04:02.858Z,1019.89
2017-07-04T03:04:28.435Z,1019.91
2017-07-04T03:04:54.021Z,1019.89
2017-07-04T03:05:19.578Z,1019.89
2017-07-04T03:05:45.134Z,1019.93
2017-07-04T03:06:10.724Z,1019.9
2017-07-04T03:06:36.305Z,1019.89
2017-07-04T03:07:01.870Z,1019.9
2017-07-04T03:07:27.417Z,1019.92
2017-07-04T03:07:52.979Z,1019.9
2017-07-04T03:08:18.562Z,1019.91
2017-07-04T03:08:44.185Z,1019.92
2017-07-04T03:09:09.740Z,1019.9
2017-07-04T03:09:35.344Z,1019.94
2017-07-04T03:10:00.918Z,1019.96
2017-07-04T03:10:26.484Z,1019.95
2017-07-04T03:10:52.036Z,1019.97
2017-07-04T03:11:17.609Z,1019.95
2017-07-04T03:11:43.178Z,1019.99
2017-07-04T03:12:08.736Z,1019.98
2017-07-04T03:12:34.306Z,1019.98
2017-07-04T03:12:59.876Z,1019.96
2017-07-04T03:13:25.452Z,1019.98
2017-07-04T03:13:51.079Z,1019.99
2017-07-04T03:14:16.629Z,1019.97
2017-07-04T03:14:42.207Z,1019.97
2017-07-04T03:15:07.874Z,1019.97
2017-07-04T03:15:33.451Z,1020
2017-07-04T03:15:59.040Z,1019.97
2017-07-04T03:16:24.601Z,1020.01
2017-07-04T03:16:50.163Z,1020.02
2017-07-04T03:17:15.711Z,1020.03
2017-07-04T03:17:41.358Z,1020
2017-07-04T03:18:06.930Z,1019.97
2017-07-04T03:18:32.504Z,1020.01
2017-07-04T03:18:58.140Z,1019.99
2017-07-04T03:19:23.714Z,1019.98
2017-07-04T03:19:49.267Z,1019.98
2017-07-04T03:20:14.835Z,1019.97
2017-07-04T03:20:40.388Z,1020.01
2017-07-04T03:21:05.964Z,1019.99
2017-07-04T03:21:31.530Z,1020.03
2017-07-04T03:21:57.114Z,1020.02
2017-07-04T03:22:22.682Z,1019.99
2017-07-04T03:22:48.311Z,1020.01
2017-07-04T03:23:13.913Z,1020.01
2017-07-04T03:23:39.474Z,1020
2017-07-04T03:24:05.032Z,1020.02
2017-07-04T03:24:30.594Z,1019.98
2017-07-04T03:24:56.207Z,1020.01
2017-07-04T03:25:21.727Z,1019.99
2017-07-04T03:25:47.376Z,1020
2017-07-04T03:26:12.945Z,1020.04
2017-07-04T03:26:38.505Z,1020.02
2017-07-04T03:27:04.082Z,1020
2017-07-04T03:27:29.631Z,1019.98
2017-07-04T03:27:55.211Z,1020.02
2017-07-04T03:28:20.747Z,1020.01
2017-07-04T03:28:46.306Z,1020.04
2017-07-04T03:29:11.869Z,1019.99
2017-07-04T03:29:37.478Z,1019.99
2017-07-04T03:30:03.026Z,1020.01
2017-07-04T03:30:28.636Z,1020.05
2017-07-04T03:30:54.207Z,1020.03
2017-07-04T03:31:19.766Z,1020.02
2017-07-04T03:31:45.319Z,1020.03
2017-07-04T03:32:11.016Z,1020.04
2017-07-04T03:32:36.585Z,1020.03
2017-07-04T03:33:02.158Z,1020.03
2017-07-04T03:33:27.756Z,1020.08
2017-07-04T03:33:53.339Z,1020.06
2017-07-04T03:34:18.916Z,1020.02
2017-07-04T03:34:44.472Z,1020.06
2017-07-04T03:35:10.036Z,1020.02
2017-07-04T03:35:35.597Z,1019.99
2017-07-04T03:36:01.187Z,1019.99
2017-07-04T03:36:26.767Z,1020.01
2017-07-04T03:36:52.317Z,1020.04
2017-07-04T03:37:17.955Z,1020
2017-07-04T03:37:43.508Z,1020.04
2017-07-04T03:38:09.056Z,1020.05
2017-07-04T03:38:34.625Z,1020.06
2017-07-04T03:39:00.231Z,1020
2017-07-04T03:39:25.745Z,1020.06
2017-07-04T03:39:51.296Z,1020.09
2017-07-04T03:40:16.845Z,1020.09
2017-07-04T03:40:42.451Z,1020.13
2017-07-04T03:41:08.072Z,1020.09
2017-07-04T03:41:33.634Z,1020.14
2017-07-04T03:41:59.191Z,1020.11
2017-07-04T03:42:24.850Z,1020.11
2017-07-04T03:42:50.457Z,1020.07
2017-07-04T03:43:16.018Z,1020.11
2017-07-04T03:43:41.562Z,1020.14
2017-07-04T03:44:07.132Z,1020.13
2017-07-04T03:44:32.694Z,1020.12
2017-07-04T03:44:58.259Z,1020.11
2017-07-04T03:45:23.818Z,1020.1
2017-07-04T03:45:49.390Z,1020.09
2017-07-04T03:46:14.951Z,1020.12
2017-07-04T03:46:40.580Z,1020.13
2017-07-04T03:47:06.141Z,1020.13
2017-07-04T03:47:31.713Z,1020.13
2017-07-04T03:47:57.305Z,1020.18
2017-07-04T03:48:22.851Z,1020.11
2017-07-04T03:48:48.421Z,1020.14
2017-07-04T03:49:14.000Z,1020.11
2017-07-04T03:49:39.670Z,1020.14
2017-07-04T03:50:05.230Z,1020.16
2017-07-04T03:50:30.803Z,1020.15
2017-07-04T03:50:56.354Z,1020.15
2017-07-04T03:51:21.915Z,1020.14
2017-07-04T03:51:47.461Z,1020.14
2017-07-04T03:52:13.034Z,1020.18
2017-07-04T03:52:38.595Z,1020.17
2017-07-04T03:53:37.469Z,1020.13
2017-07-04T03:54:03.064Z,1020.13
2017-07-04T03:54:28.615Z,1020.12
2017-07-04T03:54:54.178Z,1020.11
2017-07-04T03:55:19.729Z,1020.13
2017-07-04T03:55:45.292Z,1020.1
2017-07-04T03:56:10.856Z,1020.12
2017-07-04T03:56:36.414Z,1020.1
2017-07-04T03:57:01.952Z,1020.09
2017-07-04T03:57:27.507Z,1020.1
2017-07-04T03:58:31.164Z,1020.14
2017-07-04T03:58:56.749Z,1020.11
2017-07-04T03:59:22.406Z,1020.1
2017-07-04T03:59:47.950Z,1020.09
2017-07-04T04:00:13.520Z,1020.12
2017-07-04T04:00:39.190Z,1020.13
2017-07-04T04:01:04.742Z,1020.1
2017-07-04T04:01:30.313Z,1020.1
2017-07-04T04:01:55.849Z,1020.14
2017-07-04T04:02:21.436Z,1020.14
2017-07-04T04:02:46.999Z,1020.11
2017-07-04T04:03:12.672Z,1020.14
2017-07-04T04:03:38.228Z,1020.1
2017-07-04T04:04:03.803Z,1020.14
2017-07-04T04:04:29.354Z,1020.14
2017-07-04T04:04:54.907Z,1020.15
2017-07-04T04:05:20.464Z,1020.15
2017-07-04T04:05:46.017Z,1020.16
2017-07-04T04:06:11.578Z,1020.1
2017-07-04T04:06:37.197Z,1020.15
2017-07-04T04:07:02.763Z,1020.18
2017-07-04T04:07:28.322Z,1020.15
2017-07-04T04:07:53.879Z,1020.18
2017-07-04T04:08:19.448Z,1020.17
2017-07-04T04:08:44.997Z,1020.22
2017-07-04T04:09:10.606Z,1020.2
2017-07-04T04:09:36.163Z,1020.2
2017-07-04T04:10:01.720Z,1020.23
2017-07-04T04:10:27.320Z,1020.2
2017-07-04T04:10:52.899Z,1020.2
2017-07-04T04:11:18.460Z,1020.23
2017-07-04T04:11:44.006Z,1020.22
2017-07-04T04:12:09.734Z,1020.26
2017-07-04T04:12:35.288Z,1020.21
2017-07-04T04:13:00.889Z,1020.2
2017-07-04T04:13:26.472Z,1020.27
2017-07-04T04:13:52.035Z,1020.26
2017-07-04T04:14:17.600Z,1020.24
2017-07-04T04:14:43.180Z,1020.23
2017-07-04T04:15:08.732Z,1020.23
2017-07-04T04:15:34.302Z,1020.28
2017-07-04T04:15:59.853Z,1020.31
2017-07-04T04:16:25.495Z,1020.3
2017-07-04T04:16:51.066Z,1020.35
2017-07-04T04:17:16.622Z,1020.32
2017-07-04T04:17:42.182Z,1020.35
2017-07-04T04:18:07.733Z,1020.35
2017-07-04T04:18:33.327Z,1020.32
2017-07-04T04:18:58.892Z,1020.34
2017-07-04T04:19:24.454Z,1020.34
2017-07-04T04:19:50.013Z,1020.33
2017-07-04T04:20:15.667Z,1020.34
2017-07-04T04:20:41.229Z,1020.38
2017-07-04T04:21:06.803Z,1020.34
2017-07-04T04:21:32.426Z,1020.38
2017-07-04T04:21:57.970Z,1020.4
2017-07-04T04:22:23.533Z,1020.37
2017-07-04T04:22:49.231Z,1020.32
2017-07-04T04:23:14.780Z,1020.37
2017-07-04T04:23:40.324Z,1020.4
2017-07-04T04:24:05.892Z,1020.38
2017-07-04T04:24:31.460Z,1020.37
2017-07-04T04:24:57.006Z,1020.37
2017-07-04T04:25:22.621Z,1020.39
2017-07-04T04:25:48.184Z,1020.38
2017-07-04T04:26:13.752Z,1020.38
2017-07-04T04:26:39.312Z,1020.39
2017-07-04T04:27:04.888Z,1020.41
2017-07-04T04:27:30.448Z,1020.38
2017-07-04T04:27:56.141Z,1020.43
2017-07-04T04:28:21.712Z,1020.39
2017-07-04T04:28:47.273Z,1020.39
2017-07-04T04:29:12.839Z,1020.44
2017-07-04T04:29:38.390Z,1020.44
2017-07-04T04:30:03.954Z,1020.46
2017-07-04T04:30:29.577Z,1020.44
2017-07-04T04:30:55.186Z,1020.41
2017-07-04T04:31:20.741Z,1020.44
2017-07-04T04:31:46.286Z,1020.46
2017-07-04T04:32:11.846Z,1020.42
2017-07-04T04:32:37.412Z,1020.43
2017-07-04T04:33:03.000Z,1020.46
2017-07-04T04:33:28.668Z,1020.42
2017-07-04T04:33:54.225Z,1020.45
2017-07-04T04:34:19.842Z,1020.44
2017-07-04T04:34:45.383Z,1020.47
2017-07-04T04:35:10.985Z,1020.4
2017-07-04T04:35:36.546Z,1020.49
2017-07-04T04:36:02.112Z,1020.42
2017-07-04T04:36:27.671Z,1020.45
2017-07-04T04:36:53.264Z,1020.46
2017-07-04T04:37:18.864Z,1020.47
2017-07-04T04:37:44.401Z,1020.48
2017-07-04T04:38:09.966Z,1020.46
2017-07-04T04:38:35.564Z,1020.5
2017-07-04T04:39:01.109Z,1020.45
2017-07-04T04:39:26.674Z,1020.47
2017-07-04T04:39:52.225Z,1020.49
2017-07-04T04:40:17.785Z,1020.52
2017-07-04T04:40:43.354Z,1020.46
2017-07-04T04:41:09.006Z,1020.49
2017-07-04T04:41:34.564Z,1020.48
2017-07-04T04:42:00.903Z,1020.48
2017-07-04T04:42:26.489Z,1020.48
2017-07-04T04:42:52.051Z,1020.48
2017-07-04T04:43:18.511Z,1020.49
2017-07-04T04:43:44.734Z,1020.5
2017-07-04T04:44:11.124Z,1020.52
2017-07-04T04:44:38.402Z,1020.54
2017-07-04T04:45:05.262Z,1020.5
2017-07-04T04:45:30.894Z,1020.54
2017-07-04T04:45:56.448Z,1020.55
2017-07-04T04:46:22.002Z,1020.53
2017-07-04T04:46:47.676Z,1020.55
2017-07-04T04:47:13.223Z,1020.52
2017-07-04T04:47:38.786Z,1020.52
2017-07-04T04:48:04.342Z,1020.57
2017-07-04T04:48:29.971Z,1020.54
2017-07-04T04:48:55.541Z,1020.56
2017-07-04T04:49:21.133Z,1020.55
2017-07-04T04:49:46.800Z,1020.56
2017-07-04T04:50:12.353Z,1020.52
2017-07-04T04:50:37.906Z,1020.53
2017-07-04T04:51:03.464Z,1020.56
2017-07-04T04:51:29.034Z,1020.53
2017-07-04T04:51:54.618Z,1020.58
2017-07-04T04:52:20.190Z,1020.58
2017-07-04T04:52:45.892Z,1020.55
2017-07-04T04:53:11.470Z,1020.52
2017-07-04T04:53:37.020Z,1020.56
2017-07-04T04:54:02.684Z,1020.56
2017-07-04T04:54:28.230Z,1020.52
2017-07-04T04:54:53.783Z,1020.49
2017-07-04T04:55:19.352Z,1020.55
2017-07-04T04:55:44.993Z,1020.56
2017-07-04T04:56:10.574Z,1020.56
2017-07-04T04:56:36.173Z,1020.59
2017-07-04T04:57:01.726Z,1020.52
2017-07-04T04:57:27.297Z,1020.51
2017-07-04T04:57:52.834Z,1020.52
2017-07-04T04:58:18.426Z,1020.54
2017-07-04T04:58:43.984Z,1020.54
2017-07-04T04:59:09.536Z,1020.54
2017-07-04T04:59:35.100Z,1020.55
2017-07-04T05:00:00.661Z,1020.54
2017-07-04T05:00:26.213Z,1020.54
2017-07-04T05:00:51.771Z,1020.51
2017-07-04T05:01:17.358Z,1020.53
2017-07-04T05:01:42.941Z,1020.56
2017-07-04T05:02:08.670Z,1020.55
2017-07-04T05:02:34.234Z,1020.57
2017-07-04T05:02:59.795Z,1020.55
2017-07-04T05:03:25.345Z,1020.59
2017-07-04T05:03:50.921Z,1020.58
2017-07-04T05:04:16.490Z,1020.6
2017-07-04T05:04:42.177Z,1020.56
2017-07-04T05:05:07.729Z,1020.58
2017-07-04T05:05:33.320Z,1020.6
2017-07-04T05:05:58.878Z,1020.6
2017-07-04T05:06:24.457Z,1020.63
2017-07-04T05:06:50.020Z,1020.59
2017-07-04T05:07:15.599Z,1020.63
2017-07-04T05:07:41.194Z,1020.62
2017-07-04T05:08:06.764Z,1020.62
2017-07-04T05:08:32.340Z,1020.6
2017-07-04T05:08:57.923Z,1020.64
2017-07-04T05:09:23.467Z,1020.67
2017-07-04T05:09:49.078Z,1020.68
2017-07-04T05:10:14.635Z,1020.63
2017-07-04T05:10:40.180Z,1020.65
2017-07-04T05:11:05.747Z,1020.64
2017-07-04T05:11:31.311Z,1020.67
2017-07-04T05:11:56.861Z,1020.65
2017-07-04T05:12:22.424Z,1020.64
2017-07-04T05:12:47.980Z,1020.68
2017-07-04T05:13:13.555Z,1020.65
2017-07-04T05:13:39.169Z,1020.64
2017-07-04T05:14:04.730Z,1020.64
2017-07-04T05:14:30.304Z,1020.66
2017-07-04T05:14:55.992Z,1020.65
2017-07-04T05:15:21.543Z,1020.6
2017-07-04T05:15:47.099Z,1020.66